Aviation Digital Data Service (ADDS)

Output produced by METARs form (1710 UTC 29 May 2017)
found at http://www.aviationweather.gov/adds/metars/
 
KGBD 291138Z 2912/3012 30007KT P6SM SCT120 
     FM291700 32013KT P6SM BKN100 
     FM300000 32007KT P6SM OVC100 AMD LTD TO CLD VIS AND WIND
       
KGCC 291120Z 2912/3012 30009KT P6SM SKC 
     FM291700 34017G27KT P6SM SKC 
     FM300100 32007KT P6SM FEW250 
     FM300700 24005KT P6SM FEW250
       
KGCK 291121Z 2912/3012 36010KT P6SM SKC 
     FM292100 VRB06KT P6SM SKC
       
KGCN 291140Z 2912/3012 VRB05KT P6SM FEW100 
     FM291700 12012KT P6SM BKN100 
     FM300100 VRB05KT P6SM FEW100
       
KGDV 291129Z 2912/3012 32009KT P6SM FEW150 
     FM291600 33015KT P6SM FEW090 
     FM300200 34009KT P6SM SKC 
     FM300800 33005KT P6SM SKC
       
KGEG 291120Z 2912/3012 07005KT P6SM SKC 
     FM291800 06005KT P6SM FEW070 
     FM300300 08003KT P6SM SKC
       
KGFK 291541Z 2916/3012 33013G20KT P6SM VCSH OVC028 
     TEMPO 2916/2920 BKN018 
     FM292000 33015G23KT P6SM OVC025 
     FM300100 33012KT P6SM OVC035 
     FM301000 32012KT P6SM VCSH OVC015
       
KGFL 291700Z 2917/3012 18006KT P6SM -RA FEW027 OVC050 
     FM292100 12005KT P6SM VCSH BKN020 
     FM300900 15005KT 6SM -DZ BR BKN015
       
KGGG 291121Z 2912/3012 VRB03KT 5SM BR OVC008 
     FM291600 04003KT P6SM BKN010 
     FM291800 08004KT P6SM VCTS OVC025CB 
     TEMPO 2921/2924 -TSRA BKN007 OVC025CB 
     FM300100 13004KT P6SM VCSH BKN015
       
KGGW 291129Z 2912/3012 32008KT P6SM SKC 
     FM291700 32014KT P6SM SKC 
     FM300300 VRB06KT P6SM SKC
       
KGJT 291120Z 2912/3012 13009KT P6SM FEW200 
     FM291800 30007KT P6SM SCT200 
     FM300200 07007KT P6SM SCT200
       
KGKY 291510Z 2915/3012 05007KT P6SM FEW080 BKN300 
     FM300200 12006KT P6SM SCT300
       
KGLD 291120Z 2912/3012 35010KT P6SM SCT120
       
KGLH 291120Z 2912/3012 02005KT P6SM -SHRA BKN025 OVC100 
     FM291600 30007KT P6SM BKN035 BKN050
       
KGLS 291500Z 2915/3012 19019G25KT 5SM HZ VCSH FEW018 BKN035 
     FM291800 20014KT P6SM VCSH SCT025 BKN050 
     FM300200 09005KT P6SM VCSH SCT025 OVC250
       
KGMU 291120Z 2912/3012 31005KT P6SM FEW250 
     FM291700 24008KT P6SM SCT050 
     FM292100 24009KT P6SM BKN045 
     PROB30 2921/3003 4SM -TSRA OVC025CB 
     FM300300 25005KT P6SM BKN120 
     PROB30 3003/3005 4SM -TSRA OVC040CB
       
KGNV 291159Z 2912/3012 29007KT P6SM SCT008 
     FM291400 25008KT P6SM SCT035 
     FM300800 27003KT 4SM BR SCT005
       
KGON 291604Z 2916/3012 09010KT 6SM -RA BR OVC015 
     FM292200 06007KT 5SM BR OVC015 
     FM300200 04005KT 5SM BR OVC015
       
KGPT 291147Z 2912/3012 00000KT P6SM VCTS BKN020CB 
     TEMPO 2912/2916 2SM TSRA BKN040CB 
     FM291700 23008KT P6SM BKN090
       
KGRB 291136Z 2912/3012 25007KT P6SM SCT070 BKN100 
     TEMPO 2912/2913 4SM -SHRA BKN050 
     FM291500 26014G24KT P6SM VCSH BKN045 
     TEMPO 2920/2924 -SHRA 
     FM300200 26010KT P6SM VCSH BKN035 BKN070
       
TAF KGRF 291306Z 2913/3019 23006KT 9999 OVC006 QNH3004INS 
     BECMG 2916/2917 23006KT 9999 SCT015 QNH2995INS 
     TEMPO 2917/2919 BKN015 
     BECMG 3005/3006 24006KT 9999 OVC008 QNH2993INS TX23/2922Z TN11/3011Z
       
KGRI 291140Z 2912/3012 27008KT P6SM FEW250 
     FM291600 31015G24KT P6SM FEW080 SCT250 
     FM300100 01010KT P6SM FEW080 FEW250 
     FM300400 VRB03KT P6SM SKC
       
TAF KGRK 291600Z 2916/3022 VRB06KT 9999 OVC020 QNH3005INS 
     BECMG 2917/2918 15006KT 8000 -SHRA OVC020 QNH3002INS 
     BECMG 2923/2924 14006KT 9999 NSW BKN020 QNH3000INS 
     BECMG 3005/3006 13006KT 8000 BR BKN005 QNH3000INS 
     TEMPO 3009/3015 0800 FG SCT005 
     BECMG 3017/3018 10006KT 9999 NSW SCT025 QNH3003INS TX28/2921Z TN17/3012Z
       
KGRR 291140Z 2912/3012 23009KT P6SM SCT100 
     FM291530 25014G24KT P6SM SCT040 BKN100 
     FM292000 26015G25KT P6SM VCSH BKN050 
     FM300100 24008KT P6SM BKN050
       
TAF KGSB 291200Z 2912/3018 26005KT 9999 SKC QNH2980INS 
     BECMG 2914/2915 26010G15KT 9999 FEW050 QNH2975INS 
     BECMG 3001/3002 30006KT 9000 -SHRA SCT050 SCT100 QNH2985INS 
     TEMPO 3003/3006 32015G25KT 1600 -TSRA SCT008 BKN025CB OVC050 
     BECMG 3006/3007 34009KT 9999 NSW FEW050 QNH3000INS TX32/2920Z TN21/2912Z
       
KGSO 291618Z 2916/3012 30010KT P6SM SCT045 SCT250 
     TEMPO 2922/3002 VRB15G25KT 3SM SHRA BKN040 BKN250 
     FM300200 VRB03KT P6SM SCT250
       
KGSP 291120Z 2912/3012 28005KT P6SM FEW250 
     FM291900 24008KT P6SM SCT050 
     FM292100 24008KT P6SM BKN045 
     PROB30 2921/3003 4SM -TSRA OVC025CB 
     FM300300 22004KT P6SM BKN250 
     PROB30 3003/3005 4SM -SHRA OVC040
       
TAF KGTB 291700Z 2917/3023 16010G20KT 8000 -SHRA OVC030 510153 QNH2980INS 
     BECMG 2919/2920 17012G18KT 9999 NSW SCT015 OVC025 510152 QNH2987INS 
     BECMG 2923/2924 15012KT 9999 FEW020 BKN050 510152 QNH2992INS 
     BECMG 3009/3010 18010G15KT 9000 -RA BKN025 OVC060 QNH2999INS 
     BECMG 3012/3013 18015G20KT 9999 NSW FEW015 BKN075 510152 QNH2997INS 
     TEMPO 3018/3021 23025G35KT 4800 -TSRA OVC020CB TX18/3017Z TN12/3009Z
       
KGTF 291120Z 2912/3012 VRB04KT P6SM FEW090 SCT120
       
KGTR 291120Z 2912/3012 01005KT P6SM BKN120 
     FM291600 27007KT P6SM VCSH BKN035 BKN050 
     FM292200 25005KT P6SM VCTS BKN040CB OVC120 
     FM300200 20003KT P6SM OVC100
       
KGUP 291140Z 2912/3012 VRB04KT P6SM SKC 
     FM291700 23008KT P6SM SCT100 
     FM292200 26010KT P6SM SCT090 
     FM300200 13010KT P6SM SCT090
       
TAF KGUS 291100Z 2911/3017 23009KT 9999 FEW065 QNH2983INS 
     BECMG 2914/2915 25010G15KT 9999 FEW065 QNH2988INS 
     BECMG 2917/2918 25015G25KT 9999 BKN070 QNH2989INS 
     BECMG 2923/2924 26009KT 9999 SCT065 QNH2990INS 
     BECMG 3014/3015 26015G25KT 9999 FEW060 QNH3003INS TX24/2921Z TN12/3009Z
       
KGWO 291120Z 2912/3012 02005KT P6SM -SHRA BKN025 OVC100 
     FM291600 27007KT P6SM BKN035 BKN050
       
KGYY 291503Z 2915/3012 25012G19KT P6SM FEW080 
     FM291800 26016G26KT P6SM SCT060 
     FM300000 27008KT P6SM FEW060